createdAt,value
2023-02-08T00:00:12.730Z,1045.69
2023-02-08T00:02:39.540Z,1045.79
2023-02-08T00:05:07.018Z,1045.70
2023-02-08T00:07:33.811Z,1045.88
2023-02-08T00:10:01.904Z,1045.70
2023-02-08T00:12:28.654Z,1045.69
2023-02-08T00:14:55.376Z,1045.60
2023-02-08T00:17:22.081Z,1045.59
2023-02-08T00:19:48.858Z,1045.62
2023-02-08T00:22:15.588Z,1045.68
2023-02-08T00:24:42.329Z,1045.62
2023-02-08T00:27:10.468Z,1045.62
2023-02-08T00:29:37.191Z,1045.66
2023-02-08T00:32:04.575Z,1045.64
2023-02-08T00:34:31.450Z,1045.72
2023-02-08T00:37:00.616Z,1045.61
2023-02-08T00:39:27.402Z,1045.59
2023-02-08T00:41:54.261Z,1045.61
2023-02-08T00:44:24.975Z,1045.66
2023-02-08T00:46:51.854Z,1045.69
2023-02-08T00:49:18.749Z,1045.57
2023-02-08T00:51:45.521Z,1045.74
2023-02-08T00:54:13.889Z,1045.80
2023-02-08T00:56:40.636Z,1045.75
2023-02-08T00:59:07.437Z,1045.74
2023-02-08T01:01:35.632Z,1045.71
2023-02-08T01:04:02.765Z,1045.60
2023-02-08T01:06:29.503Z,1045.71
2023-02-08T01:08:56.254Z,1045.65
2023-02-08T01:11:24.971Z,1045.66
2023-02-08T01:13:52.660Z,1045.56
2023-02-08T01:16:21.432Z,1045.57
2023-02-08T01:18:52.067Z,1045.56
2023-02-08T01:21:21.293Z,1045.62
2023-02-08T01:23:48.624Z,1045.59
2023-02-08T01:26:16.911Z,1045.63
2023-02-08T01:28:44.218Z,1045.69
2023-02-08T01:31:12.640Z,1045.55
2023-02-08T01:33:39.569Z,1045.46
2023-02-08T01:36:08.967Z,1045.37
2023-02-08T01:38:36.824Z,1045.44
2023-02-08T01:41:05.192Z,1045.38
2023-02-08T01:43:34.115Z,1045.44
2023-02-08T01:46:01.358Z,1045.47
2023-02-08T01:48:31.882Z,1045.38
2023-02-08T01:51:03.307Z,1045.51
2023-02-08T01:53:34.457Z,1045.51
2023-02-08T01:56:04.703Z,1045.47
2023-02-08T01:58:36.604Z,1045.59
2023-02-08T02:01:04.276Z,1045.62
2023-02-08T02:03:31.307Z,1045.55
2023-02-08T02:06:03.402Z,1045.57
2023-02-08T02:08:31.905Z,1045.56
2023-02-08T02:10:58.737Z,1045.58
2023-02-08T02:13:27.404Z,1045.63
2023-02-08T02:15:54.966Z,1045.48
2023-02-08T02:18:25.835Z,1045.53
2023-02-08T02:21:21.999Z,1045.58
2023-02-08T02:24:33.745Z,1045.57
2023-02-08T02:27:25.360Z,1045.50
2023-02-08T02:30:33.940Z,1045.57
2023-02-08T02:33:30.989Z,1045.46
2023-02-08T02:36:02.983Z,1045.60
2023-02-08T02:38:44.219Z,1045.64
2023-02-08T02:41:21.232Z,1045.66
2023-02-08T02:43:56.420Z,1045.59
2023-02-08T02:46:27.595Z,1045.66
2023-02-08T02:49:02.642Z,1045.66
2023-02-08T02:51:36.098Z,1045.81
2023-02-08T02:54:07.080Z,1045.66
2023-02-08T02:56:38.392Z,1045.66
2023-02-08T02:59:10.624Z,1045.62
2023-02-08T03:01:38.203Z,1045.56
2023-02-08T03:04:14.784Z,1045.52
2023-02-08T03:06:55.006Z,1045.48
2023-02-08T03:09:46.019Z,1045.51
2023-02-08T03:12:23.992Z,1045.47
2023-02-08T03:14:57.947Z,1045.47
2023-02-08T03:17:46.973Z,1045.45
2023-02-08T03:20:19.858Z,1045.46
2023-02-08T03:22:58.861Z,1045.51
2023-02-08T03:25:32.109Z,1045.57
2023-02-08T03:28:05.825Z,1045.47
2023-02-08T03:30:34.128Z,1045.53
2023-02-08T03:33:07.005Z,1045.55
2023-02-08T03:35:40.377Z,1045.61
2023-02-08T03:38:11.065Z,1045.68
2023-02-08T03:40:41.839Z,1045.65
2023-02-08T03:43:14.824Z,1045.62
2023-02-08T03:45:46.484Z,1045.61
2023-02-08T03:48:16.102Z,1045.54
2023-02-08T03:50:49.360Z,1045.50
2023-02-08T03:53:19.196Z,1045.57
2023-02-08T03:55:48.802Z,1045.70
2023-02-08T03:58:22.022Z,1045.68
2023-02-08T04:00:54.681Z,1045.61
2023-02-08T04:03:25.990Z,1045.69
2023-02-08T04:05:54.624Z,1045.62
2023-02-08T04:08:21.750Z,1045.70
2023-02-08T04:10:48.797Z,1045.75
2023-02-08T04:13:15.572Z,1045.80
2023-02-08T04:15:42.716Z,1045.81
2023-02-08T04:18:09.476Z,1045.93
2023-02-08T04:20:36.294Z,1045.83
2023-02-08T04:23:04.445Z,1045.84
2023-02-08T04:25:31.156Z,1045.94
2023-02-08T04:27:57.978Z,1045.89
2023-02-08T04:30:24.725Z,1045.91
2023-02-08T04:32:51.469Z,1045.88
2023-02-08T04:35:18.388Z,1045.97
2023-02-08T04:37:45.166Z,1046.02
2023-02-08T04:40:13.423Z,1045.85
2023-02-08T04:42:40.143Z,1045.85
2023-02-08T04:45:07.755Z,1045.88
2023-02-08T04:47:34.488Z,1045.93
2023-02-08T04:50:01.257Z,1045.83
2023-02-08T04:52:29.137Z,1045.79
2023-02-08T04:54:55.926Z,1045.73
2023-02-08T04:57:24.085Z,1045.87
2023-02-08T04:59:50.893Z,1045.88
2023-02-08T05:02:17.725Z,1045.86
2023-02-08T05:04:44.604Z,1045.76
2023-02-08T05:07:11.392Z,1045.86
2023-02-08T05:09:38.134Z,1045.87
2023-02-08T05:12:05.341Z,1045.85
2023-02-08T05:14:33.468Z,1045.77
2023-02-08T05:17:00.366Z,1045.85
2023-02-08T05:19:27.173Z,1045.92
2023-02-08T05:21:53.987Z,1045.91
2023-02-08T05:24:20.739Z,1045.95
2023-02-08T05:26:47.480Z,1046.11
2023-02-08T05:29:14.374Z,1046.09
2023-02-08T05:31:42.649Z,1046.12
2023-02-08T05:34:09.457Z,1046.15
2023-02-08T05:36:36.279Z,1046.14
2023-02-08T05:39:03.108Z,1046.16
2023-02-08T05:41:29.842Z,1046.13
2023-02-08T05:43:56.650Z,1046.13
2023-02-08T05:46:23.435Z,1046.17
2023-02-08T05:48:51.642Z,1046.14
2023-02-08T05:51:18.376Z,1046.13
2023-02-08T05:53:45.187Z,1046.13
2023-02-08T05:56:12.119Z,1046.18
2023-02-08T05:58:38.861Z,1046.21
2023-02-08T06:01:08.764Z,1046.35
2023-02-08T06:03:35.553Z,1046.25
2023-02-08T06:06:04.459Z,1046.12
2023-02-08T06:08:31.327Z,1046.25
2023-02-08T06:10:58.168Z,1046.24
2023-02-08T06:13:25.162Z,1046.20
2023-02-08T06:15:51.990Z,1046.26
2023-02-08T06:18:18.779Z,1046.29
2023-02-08T06:20:45.584Z,1046.39
2023-02-08T06:23:13.794Z,1046.36
2023-02-08T06:25:40.574Z,1046.39
2023-02-08T06:28:07.480Z,1046.37
2023-02-08T06:30:34.206Z,1046.31
2023-02-08T06:33:01.017Z,1046.19
2023-02-08T06:35:27.755Z,1046.18
2023-02-08T06:37:54.501Z,1046.22
2023-02-08T06:40:22.580Z,1046.34
2023-02-08T06:42:49.392Z,1046.39
2023-02-08T06:45:16.328Z,1046.39
2023-02-08T06:47:43.045Z,1046.50
2023-02-08T06:50:10.744Z,1046.42
2023-02-08T06:52:37.689Z,1046.40
2023-02-08T06:55:05.146Z,1046.48
2023-02-08T06:57:33.269Z,1046.53
2023-02-08T07:00:00.016Z,1046.60
2023-02-08T07:02:26.807Z,1046.51
2023-02-08T07:04:56.213Z,1046.76
2023-02-08T07:07:23.114Z,1046.56
2023-02-08T07:09:49.968Z,1046.56
2023-02-08T07:12:16.897Z,1046.54
2023-02-08T07:14:45.080Z,1046.59
2023-02-08T07:17:12.721Z,1046.64
2023-02-08T07:19:40.117Z,1046.61
2023-02-08T07:22:07.586Z,1046.67
2023-02-08T07:24:35.304Z,1046.67
2023-02-08T07:27:02.310Z,1046.73
2023-02-08T07:29:30.437Z,1046.61
2023-02-08T07:32:00.061Z,1046.61
2023-02-08T07:34:29.460Z,1046.60
2023-02-08T07:36:57.235Z,1046.64
2023-02-08T07:39:25.103Z,1046.70
2023-02-08T07:41:52.330Z,1046.73
2023-02-08T07:44:19.208Z,1046.63
2023-02-08T07:46:46.244Z,1046.66
2023-02-08T07:49:14.855Z,1046.67
2023-02-08T07:51:41.726Z,1046.44
2023-02-08T07:54:08.467Z,1046.28
2023-02-08T07:56:35.291Z,1046.27
2023-02-08T07:59:02.013Z,1046.12
2023-02-08T08:01:29.007Z,1046.12
2023-02-08T08:03:55.876Z,1045.97
2023-02-08T08:06:24.093Z,1045.81
2023-02-08T08:08:51.081Z,1045.75
2023-02-08T08:11:19.241Z,1045.57
2023-02-08T08:13:46.057Z,1045.42
2023-02-08T08:16:13.282Z,1045.36
2023-02-08T08:18:40.157Z,1045.21
2023-02-08T08:21:08.081Z,1044.96
2023-02-08T08:23:36.660Z,1044.91
2023-02-08T08:26:07.932Z,1044.74
2023-02-08T08:28:34.737Z,1044.67
2023-02-08T08:31:01.682Z,1044.48
2023-02-08T08:33:28.529Z,1044.63
2023-02-08T08:35:55.268Z,1044.69
2023-02-08T08:38:22.057Z,1044.86
2023-02-08T08:40:50.145Z,1044.90
2023-02-08T08:43:16.963Z,1044.83
2023-02-08T08:45:43.788Z,1044.84
2023-02-08T08:48:10.556Z,1044.80
2023-02-08T08:50:37.430Z,1044.63
2023-02-08T08:53:04.636Z,1044.53
2023-02-08T08:55:31.569Z,1044.47
2023-02-08T08:57:59.741Z,1044.42
2023-02-08T09:00:26.511Z,1044.41
2023-02-08T09:02:53.377Z,1044.44
2023-02-08T09:05:20.176Z,1044.30
2023-02-08T09:07:46.883Z,1044.24
2023-02-08T09:10:13.663Z,1044.48
2023-02-08T09:12:40.605Z,1044.57
2023-02-08T09:15:09.301Z,1044.30
2023-02-08T09:17:36.056Z,1044.41
2023-02-08T09:20:04.846Z,1044.46
2023-02-08T09:22:31.847Z,1044.46
2023-02-08T09:24:58.768Z,1044.44
2023-02-08T09:27:25.549Z,1044.20
2023-02-08T09:29:52.599Z,1043.97
2023-02-08T09:32:20.712Z,1043.88
2023-02-08T09:34:47.503Z,1043.72
2023-02-08T09:37:14.418Z,1043.66
2023-02-08T09:39:41.258Z,1043.56
2023-02-08T09:42:20.361Z,1043.58
2023-02-08T09:45:01.297Z,1043.53
2023-02-08T09:47:34.656Z,1043.62
2023-02-08T09:50:05.378Z,1043.64
2023-02-08T09:52:37.505Z,1043.63
2023-02-08T09:55:19.580Z,1043.53
2023-02-08T09:57:48.826Z,1043.56
2023-02-08T10:00:19.371Z,1043.45
2023-02-08T10:02:49.309Z,1043.74
2023-02-08T10:05:20.803Z,1043.81
2023-02-08T10:07:47.988Z,1044.20
2023-02-08T10:10:19.732Z,1044.30
2023-02-08T10:12:57.018Z,1044.04
2023-02-08T10:15:35.504Z,1043.68
2023-02-08T10:18:25.220Z,1043.54
2023-02-08T10:21:15.480Z,1043.48
2023-02-08T10:24:01.007Z,1043.58
2023-02-08T10:26:35.688Z,1043.90
2023-02-08T10:29:21.296Z,1043.84
2023-02-08T10:32:03.261Z,1043.96
2023-02-08T10:34:42.393Z,1044.02
2023-02-08T10:37:14.096Z,1043.91
2023-02-08T10:39:41.491Z,1044.11
2023-02-08T10:42:14.055Z,1043.88
2023-02-08T10:44:53.971Z,1043.72
2023-02-08T10:47:33.436Z,1043.68
2023-02-08T10:50:05.202Z,1043.67
2023-02-08T10:52:32.495Z,1043.62
2023-02-08T10:54:59.311Z,1043.83
2023-02-08T10:57:28.823Z,1043.76
2023-02-08T11:00:00.825Z,1043.96
2023-02-08T11:02:32.090Z,1044.04
2023-02-08T11:05:02.230Z,1044.07
2023-02-08T11:07:29.702Z,1043.93
2023-02-08T11:10:14.386Z,1043.90
2023-02-08T11:12:42.131Z,1043.58
2023-02-08T11:15:22.603Z,1043.55
2023-02-08T11:17:54.340Z,1043.55
2023-02-08T11:20:28.903Z,1043.29
2023-02-08T11:22:55.778Z,1043.32
2023-02-08T11:25:35.981Z,1043.45
2023-02-08T11:28:03.065Z,1043.61
2023-02-08T11:30:30.196Z,1043.64
2023-02-08T11:33:15.860Z,1043.64
2023-02-08T11:36:06.639Z,1043.68
2023-02-08T11:38:36.552Z,1043.81
2023-02-08T11:41:05.447Z,1043.76
2023-02-08T11:43:34.884Z,1043.62
2023-02-08T11:46:04.674Z,1043.70
2023-02-08T11:48:40.944Z,1043.88
2023-02-08T11:51:11.985Z,1043.75
2023-02-08T11:53:40.762Z,1043.53
2023-02-08T11:56:17.075Z,1043.54
2023-02-08T11:59:00.390Z,1043.48
2023-02-08T12:01:28.840Z,1043.47
2023-02-08T12:03:57.928Z,1043.29
2023-02-08T12:06:50.021Z,1043.13
2023-02-08T12:09:29.461Z,1043.12
2023-02-08T12:12:06.581Z,1043.17
2023-02-08T12:14:47.011Z,1043.31
2023-02-08T12:17:57.524Z,1043.43
2023-02-08T12:20:41.407Z,1043.79
2023-02-08T12:23:27.540Z,1043.79
2023-02-08T12:26:04.397Z,1043.64
2023-02-08T12:28:43.377Z,1043.72
2023-02-08T12:31:23.289Z,1044.00
2023-02-08T12:34:03.077Z,1043.92
2023-02-08T12:36:45.056Z,1043.90
2023-02-08T12:39:26.834Z,1043.97
2023-02-08T12:42:24.199Z,1044.04
2023-02-08T12:45:08.516Z,1044.18
2023-02-08T12:47:51.684Z,1044.35
2023-02-08T12:50:34.369Z,1044.34
2023-02-08T12:53:05.899Z,1044.26
2023-02-08T12:55:38.657Z,1044.22
2023-02-08T12:58:19.757Z,1044.32
2023-02-08T13:00:48.322Z,1044.28
2023-02-08T13:03:27.188Z,1044.26
2023-02-08T13:06:02.094Z,1044.16
2023-02-08T13:08:35.093Z,1044.10
2023-02-08T13:11:19.506Z,1044.09
2023-02-08T13:13:56.707Z,1044.16
2023-02-08T13:16:26.265Z,1044.06
2023-02-08T13:18:55.494Z,1044.05
2023-02-08T13:21:28.234Z,1044.05
2023-02-08T13:23:55.913Z,1044.04
2023-02-08T13:26:26.848Z,1044.11
2023-02-08T13:28:56.024Z,1043.97
2023-02-08T13:31:25.725Z,1044.00
2023-02-08T13:34:01.929Z,1043.94
2023-02-08T13:36:32.699Z,1043.80
2023-02-08T13:39:02.328Z,1043.82
2023-02-08T13:41:32.846Z,1043.91
2023-02-08T13:44:03.177Z,1043.99
2023-02-08T13:46:45.966Z,1044.12
2023-02-08T13:49:46.254Z,1044.30
2023-02-08T13:52:49.423Z,1044.06
2023-02-08T13:55:50.827Z,1043.99
2023-02-08T13:58:38.793Z,1043.96
2023-02-08T14:01:18.633Z,1043.94
2023-02-08T14:04:20.714Z,1043.92
2023-02-08T14:06:55.222Z,1043.90
2023-02-08T14:09:29.690Z,1043.91
2023-02-08T14:12:02.944Z,1043.95
2023-02-08T14:14:34.896Z,1044.07
2023-02-08T14:17:24.212Z,1043.97
2023-02-08T14:19:58.167Z,1043.96
2023-02-08T14:22:28.759Z,1044.21
2023-02-08T14:25:07.389Z,1044.17
2023-02-08T14:27:39.570Z,1044.21
2023-02-08T14:30:22.053Z,1044.15
2023-02-08T14:32:53.442Z,1044.16
2023-02-08T14:35:22.511Z,1044.16
2023-02-08T14:37:55.861Z,1044.22
2023-02-08T14:40:47.479Z,1044.19
2023-02-08T14:43:30.606Z,1044.05
2023-02-08T14:46:42.802Z,1044.26
2023-02-08T14:49:12.426Z,1044.22
2023-02-08T14:51:41.741Z,1044.21
2023-02-08T14:54:19.743Z,1044.20
2023-02-08T14:56:54.579Z,1044.21
2023-02-08T14:59:26.866Z,1044.27
2023-02-08T15:01:58.906Z,1044.33
2023-02-08T15:04:26.558Z,1044.19
2023-02-08T15:07:15.869Z,1044.26
2023-02-08T15:09:44.975Z,1044.26
2023-02-08T15:12:18.389Z,1044.26
2023-02-08T15:14:45.595Z,1044.28
2023-02-08T15:17:34.136Z,1044.23
2023-02-08T15:20:02.307Z,1044.38
2023-02-08T15:22:35.035Z,1044.44
2023-02-08T15:25:20.073Z,1044.55
2023-02-08T15:27:48.910Z,1044.60
2023-02-08T15:30:31.823Z,1044.45
2023-02-08T15:33:01.018Z,1044.43
2023-02-08T15:35:31.473Z,1044.50
2023-02-08T15:37:58.538Z,1044.48
2023-02-08T15:40:28.748Z,1044.64
2023-02-08T15:43:03.772Z,1044.64
2023-02-08T15:45:31.010Z,1044.67
2023-02-08T15:48:00.672Z,1044.60
2023-02-08T15:50:30.958Z,1044.57
2023-02-08T15:53:00.398Z,1044.59
2023-02-08T15:55:31.012Z,1044.70
2023-02-08T15:58:02.480Z,1044.77
2023-02-08T16:00:33.064Z,1044.92
2023-02-08T16:03:04.667Z,1044.93
2023-02-08T16:05:32.660Z,1044.88
2023-02-08T16:08:01.296Z,1044.84
2023-02-08T16:10:31.968Z,1044.85
2023-02-08T16:13:00.980Z,1044.79
2023-02-08T16:15:42.445Z,1044.74
2023-02-08T16:18:38.523Z,1045.01
2023-02-08T16:21:17.805Z,1045.05
2023-02-08T16:23:50.029Z,1045.07
2023-02-08T16:26:21.023Z,1044.98
2023-02-08T16:28:58.176Z,1045.03
2023-02-08T16:31:27.094Z,1045.05
2023-02-08T16:34:00.982Z,1045.04
2023-02-08T16:36:32.609Z,1045.04
2023-02-08T16:39:23.187Z,1045.08
2023-02-08T16:42:14.397Z,1045.03
2023-02-08T16:44:58.943Z,1045.12
2023-02-08T16:47:27.544Z,1045.23
2023-02-08T16:49:55.638Z,1045.27
2023-02-08T16:52:22.352Z,1045.16
2023-02-08T16:54:49.126Z,1045.09
2023-02-08T16:57:15.894Z,1045.14
2023-02-08T16:59:42.623Z,1045.32
2023-02-08T17:02:12.262Z,1045.37
2023-02-08T17:04:39.512Z,1045.18
2023-02-08T17:07:15.151Z,1045.19
2023-02-08T17:09:42.248Z,1045.32
2023-02-08T17:12:21.573Z,1045.29
2023-02-08T17:14:49.967Z,1045.27
2023-02-08T17:17:17.081Z,1045.38
2023-02-08T17:19:44.229Z,1045.21
2023-02-08T17:22:13.038Z,1045.29
2023-02-08T17:24:39.842Z,1045.31
2023-02-08T17:27:06.677Z,1045.24
2023-02-08T17:29:33.561Z,1045.19
2023-02-08T17:32:00.290Z,1045.18
2023-02-08T17:34:26.993Z,1045.15
2023-02-08T17:36:53.848Z,1045.20
2023-02-08T17:39:21.949Z,1045.30
2023-02-08T17:41:48.856Z,1045.37
2023-02-08T17:44:15.585Z,1045.36
2023-02-08T17:46:42.645Z,1045.47
2023-02-08T17:49:09.498Z,1045.42
2023-02-08T17:51:36.244Z,1045.46
2023-02-08T17:54:04.092Z,1045.52
2023-02-08T17:56:32.383Z,1045.43
2023-02-08T17:58:59.188Z,1045.45
2023-02-08T18:01:27.381Z,1045.44
2023-02-08T18:03:54.192Z,1045.43
2023-02-08T18:06:21.832Z,1045.54
2023-02-08T18:08:48.577Z,1045.58
2023-02-08T18:11:17.749Z,1045.71
2023-02-08T18:13:48.058Z,1045.74
2023-02-08T18:16:17.362Z,1045.69
2023-02-08T18:18:44.380Z,1045.57
2023-02-08T18:21:12.365Z,1045.70
2023-02-08T18:23:39.213Z,1045.80
2023-02-08T18:26:07.537Z,1045.75
2023-02-08T18:28:34.377Z,1045.93
2023-02-08T18:31:03.998Z,1045.84
2023-02-08T18:33:31.111Z,1045.88
2023-02-08T18:35:57.857Z,1045.75
2023-02-08T18:38:24.654Z,1045.65
2023-02-08T18:40:51.821Z,1045.69
2023-02-08T18:43:18.994Z,1045.63
2023-02-08T18:45:46.100Z,1045.56
2023-02-08T18:48:14.336Z,1045.72
2023-02-08T18:50:41.047Z,1045.77
2023-02-08T18:53:07.818Z,1045.71
2023-02-08T18:55:34.556Z,1045.68
2023-02-08T18:58:01.360Z,1045.67
2023-02-08T19:00:28.205Z,1045.66
2023-02-08T19:02:54.928Z,1045.55
2023-02-08T19:05:23.071Z,1045.53
2023-02-08T19:07:49.788Z,1045.41
2023-02-08T19:10:16.603Z,1045.45
2023-02-08T19:12:43.581Z,1045.52
2023-02-08T19:15:10.307Z,1045.40
2023-02-08T19:17:37.116Z,1045.43
2023-02-08T19:20:04.293Z,1045.35
2023-02-08T19:22:32.582Z,1045.43
2023-02-08T19:24:59.391Z,1045.46
2023-02-08T19:27:26.118Z,1045.42
2023-02-08T19:29:52.870Z,1045.43
2023-02-08T19:32:19.746Z,1045.37
2023-02-08T19:34:46.500Z,1045.45
2023-02-08T19:37:13.307Z,1045.43
2023-02-08T19:39:41.433Z,1045.33
2023-02-08T19:42:08.200Z,1045.39
2023-02-08T19:44:34.934Z,1045.44
2023-02-08T19:47:01.632Z,1045.42
2023-02-08T19:49:28.902Z,1045.44
2023-02-08T19:51:56.230Z,1045.58
2023-02-08T19:54:23.681Z,1045.66
2023-02-08T19:56:51.818Z,1045.83
2023-02-08T19:59:20.532Z,1045.88
2023-02-08T20:01:47.705Z,1045.92
2023-02-08T20:04:15.020Z,1045.90
2023-02-08T20:06:42.368Z,1045.95
2023-02-08T20:09:09.093Z,1045.83
2023-02-08T20:11:45.168Z,1045.83
2023-02-08T20:14:23.531Z,1045.92
2023-02-08T20:16:50.422Z,1045.81
2023-02-08T20:19:17.705Z,1045.77
2023-02-08T20:21:45.419Z,1045.74
2023-02-08T20:24:12.537Z,1045.76
2023-02-08T20:26:41.879Z,1045.74
2023-02-08T20:29:08.939Z,1045.71
2023-02-08T20:31:39.795Z,1045.97
2023-02-08T20:34:08.437Z,1046.01
2023-02-08T20:36:37.163Z,1045.94
2023-02-08T20:39:04.389Z,1046.08
2023-02-08T20:41:31.357Z,1046.07
2023-02-08T20:43:58.393Z,1046.12
2023-02-08T20:46:27.142Z,1046.17
2023-02-08T20:48:56.743Z,1046.33
2023-02-08T20:51:27.170Z,1046.22
2023-02-08T20:53:55.093Z,1046.23
2023-02-08T20:56:24.146Z,1046.13
2023-02-08T20:58:51.573Z,1046.11
2023-02-08T21:01:20.958Z,1045.96
2023-02-08T21:03:48.164Z,1046.23
2023-02-08T21:06:18.821Z,1046.33
2023-02-08T21:08:46.397Z,1046.23
2023-02-08T21:11:13.134Z,1046.17
2023-02-08T21:13:39.860Z,1046.09
2023-02-08T21:16:07.149Z,1046.08
2023-02-08T21:18:34.493Z,1046.21
2023-02-08T21:21:01.564Z,1046.26
2023-02-08T21:23:29.996Z,1046.19
2023-02-08T21:25:58.378Z,1046.26
2023-02-08T21:28:25.380Z,1046.22
2023-02-08T21:30:56.589Z,1046.26
2023-02-08T21:33:23.604Z,1046.28
2023-02-08T21:35:50.353Z,1046.17
2023-02-08T21:38:17.305Z,1046.22
2023-02-08T21:40:45.771Z,1046.18
2023-02-08T21:43:12.792Z,1046.22
2023-02-08T21:45:40.085Z,1046.20
2023-02-08T21:48:07.003Z,1046.24
2023-02-08T21:50:33.773Z,1046.20
2023-02-08T21:53:00.597Z,1046.25
2023-02-08T21:55:27.363Z,1046.16
2023-02-08T21:57:55.604Z,1046.10
2023-02-08T22:00:22.376Z,1046.19
2023-02-08T22:02:49.173Z,1046.17
2023-02-08T22:05:16.100Z,1046.33
2023-02-08T22:07:44.799Z,1046.22
2023-02-08T22:10:13.384Z,1046.15
2023-02-08T22:12:40.519Z,1046.19
2023-02-08T22:15:09.947Z,1046.20
2023-02-08T22:17:36.813Z,1046.22
2023-02-08T22:20:04.065Z,1046.18
2023-02-08T22:22:30.973Z,1046.14
2023-02-08T22:24:57.808Z,1046.01
2023-02-08T22:27:24.928Z,1046.17
2023-02-08T22:29:51.714Z,1046.16
2023-02-08T22:32:20.171Z,1046.05
2023-02-08T22:34:48.053Z,1045.98
2023-02-08T22:37:15.629Z,1046.07
2023-02-08T22:39:42.635Z,1046.17
2023-02-08T22:42:09.966Z,1046.18
2023-02-08T22:44:37.207Z,1046.05
2023-02-08T22:47:05.400Z,1046.29
2023-02-08T22:49:34.106Z,1046.21
2023-02-08T22:52:01.569Z,1046.17
2023-02-08T22:54:28.373Z,1046.15
2023-02-08T22:56:55.099Z,1046.05
2023-02-08T22:59:21.919Z,1046.14
2023-02-08T23:01:48.806Z,1046.04
2023-02-08T23:04:15.581Z,1045.96
2023-02-08T23:06:43.774Z,1045.92
2023-02-08T23:09:12.044Z,1045.92
2023-02-08T23:11:38.826Z,1046.03
2023-02-08T23:14:05.552Z,1045.97
2023-02-08T23:16:32.458Z,1046.00
2023-02-08T23:18:59.472Z,1045.93
2023-02-08T23:21:26.428Z,1045.87
2023-02-08T23:23:54.552Z,1045.79
2023-02-08T23:26:21.699Z,1045.74
2023-02-08T23:28:50.958Z,1045.68
2023-02-08T23:31:18.503Z,1045.76
2023-02-08T23:33:45.450Z,1045.74
2023-02-08T23:36:15.450Z,1045.71
2023-02-08T23:38:42.961Z,1045.77
2023-02-08T23:41:12.780Z,1045.68
2023-02-08T23:43:39.725Z,1045.72
2023-02-08T23:46:07.448Z,1045.77
2023-02-08T23:48:34.712Z,1045.74
2023-02-08T23:51:03.081Z,1045.88
2023-02-08T23:53:31.081Z,1045.94
2023-02-08T23:56:14.142Z,1045.99
2023-02-08T23:58:41.060Z,1045.94
